Time;durP1;ratioP1;P1;durP2;ratioP2;P2;SDS_P1;SDS_P2;PMS_P1;PMS_P2;Temp;Humidity;BMP_temperature;BMP_pressure;BME280_temperature;BME280_humidity;BME280_pressure;Samples;Min_cycle;Max_cycle;Signal;HPM_P1;HPM_P2
2020/12/20 00:06:36;;;;;;;1.40;1.10;;;12.00;99.90;;;;;;20697523;28;20219;-73
2020/12/20 00:16:40;;;;;;;7.87;2.33;;;12.20;99.90;;;;;;20697628;28;20202;-74
2020/12/20 00:26:45;;;;;;;1.10;1.00;;;11.90;99.90;;;;;;20696299;28;20205;-74
2020/12/20 00:36:51;;;;;;;1.03;0.77;;;11.60;99.90;;;;;;20696432;28;20364;-75
2020/12/20 00:46:55;;;;;;;0.73;0.73;;;11.00;99.90;;;;;;20674386;28;20195;-77
2020/12/20 00:56:58;;;;;;;1.43;1.13;;;11.10;99.90;;;;;;20695058;28;20195;-76
2020/12/20 01:07:02;;;;;;;2.20;0.60;;;11.30;99.90;;;;;;20753781;23;20222;-70
2020/12/20 01:17:06;;;;;;;6.70;2.33;;;11.50;99.90;;;;;;20771604;28;20194;-69
2020/12/20 01:27:15;;;;;;;3.53;1.23;;;12.00;99.90;;;;;;20769577;28;20782;-69
2020/12/20 01:37:18;;;;;;;1.53;1.03;;;12.30;99.90;;;;;;20765283;28;20218;-68
2020/12/20 01:47:21;;;;;;;1.53;1.43;;;12.20;99.90;;;;;;20782178;28;20202;-69
2020/12/20 01:57:37;;;;;;;1.63;1.43;;;12.20;99.90;;;;;;20764764;28;20218;-69
2020/12/20 02:07:40;;;;;;;6.90;2.20;;;12.20;99.90;;;;;;20765371;23;20226;-73
2020/12/20 02:17:44;;;;;;;2.47;1.60;;;12.30;99.90;;;;;;20683405;28;20309;-74
2020/12/20 02:27:55;;;;;;;1.93;1.73;;;12.60;99.90;;;;;;20704139;28;20222;-73
2020/12/20 02:37:57;;;;;;;2.43;1.83;;;12.70;99.90;;;;;;20703329;28;20230;-74
2020/12/20 02:48:01;;;;;;;9.13;1.87;;;12.80;99.90;;;;;;20686621;28;20285;-74
2020/12/20 02:58:09;;;;;;;8.23;1.57;;;12.70;99.90;;;;;;20701256;28;20237;-74
2020/12/20 03:08:12;;;;;;;0.90;0.73;;;12.50;99.90;;;;;;20859667;23;20229;-68
2020/12/20 03:18:15;;;;;;;1.90;1.13;;;12.20;99.90;;;;;;20845641;28;20699;-68
2020/12/20 03:28:34;;;;;;;0.73;0.73;;;12.00;99.90;;;;;;20843515;28;20460;-67
2020/12/20 03:38:36;;;;;;;0.90;0.80;;;12.00;99.90;;;;;;20858788;28;20216;-67
2020/12/20 03:48:40;;;;;;;2.67;1.70;;;11.90;99.90;;;;;;20859403;28;20201;-68
2020/12/20 03:58:48;;;;;;;1.43;1.13;;;11.70;99.90;;;;;;20857028;28;20253;-67
2020/12/20 04:08:52;;;;;;;6.30;1.37;;;11.80;99.90;;;;;;20751977;22;21048;-72
2020/12/20 04:18:54;;;;;;;1.13;1.03;;;11.80;99.90;;;;;;20693093;28;20708;-72
2020/12/20 04:29:07;;;;;;;2.03;0.63;;;11.90;99.90;;;;;;20695653;28;20205;-72
2020/12/20 04:39:09;;;;;;;0.67;0.67;;;12.00;99.90;;;;;;20693499;28;20232;-72
2020/12/20 04:49:14;;;;;;;0.30;0.30;;;11.90;99.90;;;;;;20695627;28;20190;-72
2020/12/20 04:59:27;;;;;;;0.53;0.53;;;11.80;99.90;;;;;;20695748;28;20238;-72
2020/12/20 05:09:31;;;;;;;0.23;0.23;;;11.50;99.90;;;;;;20732971;28;20770;-73
2020/12/20 05:19:34;;;;;;;0.80;0.80;;;11.20;99.90;;;;;;20709015;28;20226;-71
2020/12/20 05:29:49;;;;;;;0.50;0.50;;;10.60;99.90;;;;;;20706208;28;20521;-72
2020/12/20 05:39:52;;;;;;;1.57;1.40;;;10.60;99.90;;;;;;20689706;28;20237;-72
2020/12/20 05:49:55;;;;;;;0.33;0.33;;;10.60;99.90;;;;;;20783127;28;20202;-72
2020/12/20 06:00:06;;;;;;;0.20;0.10;;;10.50;99.90;;;;;;20786843;28;20575;-73
2020/12/20 06:10:13;;;;;;;2.63;0.83;;;10.60;99.90;;;;;;20787894;28;20194;-74
2020/12/20 06:20:28;;;;;;;0.90;0.90;;;10.70;99.90;;;;;;20783648;28;20218;-72
2020/12/20 06:30:32;;;;;;;0.80;0.50;;;10.40;99.90;;;;;;20765657;28;20204;-73
2020/12/20 06:40:42;;;;;;;0.20;0.10;;;10.50;99.90;;;;;;20783683;28;20628;-74
2020/12/20 06:50:47;;;;;;;0.20;0.10;;;10.40;99.90;;;;;;20775146;28;20208;-73
2020/12/20 07:00:54;;;;;;;0.20;0.10;;;10.70;99.90;;;;;;20709385;28;20242;-76
2020/12/20 07:10:59;;;;;;;0.40;0.17;;;11.30;99.90;;;;;;20770389;28;20321;-76
2020/12/20 07:21:02;;;;;;;0.20;0.10;;;11.30;99.90;;;;;;20763646;28;20262;-74
2020/12/20 07:31:13;;;;;;;0.30;0.30;;;11.60;99.90;;;;;;20780483;28;20552;-71
2020/12/20 07:41:17;;;;;;;0.93;0.60;;;11.80;99.90;;;;;;20760442;28;20224;-76
2020/12/20 07:51:23;;;;;;;0.20;0.10;;;11.40;99.90;;;;;;20761311;28;20285;-75
2020/12/20 08:01:26;;;;;;;0.80;0.67;;;11.40;99.90;;;;;;20760303;28;20595;-74
2020/12/20 08:11:31;;;;;;;0.97;0.57;;;11.40;99.90;;;;;;20777648;28;20186;-76
2020/12/20 08:21:58;;;;;;;0.20;0.10;;;11.50;99.90;;;;;;20774820;28;20470;-76
2020/12/20 08:32:13;;;;;;;0.30;0.10;;;11.80;99.90;;;;;;20776836;28;20576;-77
2020/12/20 08:42:18;;;;;;;0.53;0.50;;;11.90;99.90;;;;;;20767350;28;20965;-77
2020/12/20 08:52:22;;;;;;;0.30;0.30;;;12.10;99.90;;;;;;20777628;28;20663;-78
2020/12/20 09:02:26;;;;;;;0.20;0.20;;;12.20;99.90;;;;;;20794361;28;20723;-77
2020/12/20 09:12:29;;;;;;;0.30;0.30;;;12.50;99.90;;;;;;20792870;28;20208;-77
2020/12/20 09:22:57;;;;;;;1.37;0.73;;;12.70;99.90;;;;;;20851508;28;20222;-79
2020/12/20 09:33:00;;;;;;;0.20;0.10;;;12.70;99.90;;;;;;20785477;28;20210;-83
2020/12/20 09:43:03;;;;;;;0.73;0.57;;;13.30;99.90;;;;;;20789836;28;20225;-85
2020/12/20 09:53:06;;;;;;;0.80;0.73;;;13.70;99.90;;;;;;20768328;28;20186;-76
2020/12/20 10:03:09;;;;;;;0.40;0.37;;;13.70;99.90;;;;;;20788503;28;20245;-76
2020/12/20 10:13:12;;;;;;;0.20;0.10;;;13.60;99.90;;;;;;20798879;28;20200;-83
2020/12/20 10:23:16;;;;;;;3.17;0.43;;;14.20;99.90;;;;;;20791870;28;20222;-82
2020/12/20 10:33:20;;;;;;;0.37;0.37;;;15.20;99.90;;;;;;20790193;28;20556;-78
2020/12/20 10:43:22;;;;;;;0.40;0.40;;;15.60;99.90;;;;;;20792198;28;20347;-79
2020/12/20 10:53:26;;;;;;;0.20;0.10;;;16.10;99.90;;;;;;20769345;28;20208;-79
2020/12/20 11:03:29;;;;;;;1.23;0.63;;;16.70;99.90;;;;;;20768209;28;20313;-82
2020/12/20 11:13:33;;;;;;;0.57;0.57;;;16.70;99.90;;;;;;20783748;28;20186;-79
2020/12/20 11:23:36;;;;;;;0.30;0.27;;;17.20;99.90;;;;;;20779542;28;20237;-81
2020/12/20 11:33:40;;;;;;;0.27;0.20;;;17.80;99.90;;;;;;20781876;28;20198;-76
2020/12/20 11:43:42;;;;;;;0.30;0.20;;;18.70;99.90;;;;;;20816332;28;20272;-76
2020/12/20 11:53:46;;;;;;;0.63;0.57;;;19.40;99.90;;;;;;20777446;28;20543;-78
2020/12/20 12:03:50;;;;;;;0.30;0.30;;;19.70;99.90;;;;;;20754893;28;20674;-77
2020/12/20 12:13:53;;;;;;;0.47;0.43;;;19.60;99.90;;;;;;20774381;28;20202;-76
2020/12/20 12:23:56;;;;;;;0.87;0.50;;;20.10;99.90;;;;;;20773005;28;20226;-76
2020/12/20 12:34:09;;;;;;;0.23;0.23;;;20.50;99.90;;;;;;20771177;28;20193;-77
2020/12/20 12:44:12;;;;;;;0.30;0.30;;;20.60;99.90;;;;;;20775894;28;20252;-77
2020/12/20 12:54:16;;;;;;;1.63;0.77;;;20.70;99.90;;;;;;20770566;28;20216;-76
2020/12/20 13:04:30;;;;;;;2.43;0.40;;;21.60;99.90;;;;;;20771320;28;20229;-76
2020/12/20 13:14:40;;;;;;;0.20;0.20;;;21.30;99.90;;;;;;20772677;28;20899;-75
2020/12/20 13:24:43;;;;;;;6.57;1.37;;;21.30;99.90;;;;;;20749991;28;20222;-75
2020/12/20 13:34:52;;;;;;;0.90;0.90;;;21.80;99.90;;;;;;20767885;28;20206;-76
2020/12/20 13:44:55;;;;;;;7.93;0.63;;;22.20;99.90;;;;;;20781440;28;20550;-77
2020/12/20 13:54:58;;;;;;;1.33;1.07;;;21.70;99.90;;;;;;20784847;28;20343;-77
2020/12/20 14:05:01;;;;;;;0.87;0.40;;;21.70;99.90;;;;;;20782133;28;20236;-78
2020/12/20 14:15:06;;;;;;;3.70;2.40;;;18.10;99.90;;;;;;20784414;28;20245;-78
2020/12/20 14:25:10;;;;;;;0.67;0.67;;;17.60;99.90;;;;;;20764565;28;20226;-78
2020/12/20 14:35:20;;;;;;;0.50;0.47;;;17.00;99.90;;;;;;20783166;28;20687;-79
2020/12/20 14:45:22;;;;;;;1.50;1.00;;;16.80;99.90;;;;;;20780079;28;20312;-75
2020/12/20 14:55:26;;;;;;;0.27;0.27;;;16.60;99.90;;;;;;20779384;28;20202;-78
2020/12/20 15:05:36;;;;;;;1.80;0.30;;;16.30;99.90;;;;;;20780797;28;20229;-77
2020/12/20 15:15:39;;;;;;;0.67;0.40;;;15.90;99.90;;;;;;20776793;28;20202;-75
2020/12/20 15:25:43;;;;;;;0.60;0.60;;;16.00;99.90;;;;;;20779219;28;20431;-77
2020/12/20 15:35:53;;;;;;;2.33;0.90;;;16.10;99.90;;;;;;20759181;28;20674;-76
2020/12/20 15:45:56;;;;;;;3.93;0.50;;;15.60;99.90;;;;;;20777426;28;20757;-78
2020/12/20 15:56:02;;;;;;;1.80;0.53;;;15.40;99.90;;;;;;20774400;28;20194;-74
2020/12/20 16:06:27;;;;;;;0.50;0.30;;;15.00;99.90;;;;;;20776080;28;20937;-77
2020/12/20 16:16:31;;;;;;;2.53;0.53;;;14.70;99.90;;;;;;20774893;28;20197;-77
2020/12/20 16:26:33;;;;;;;2.83;0.77;;;14.40;99.90;;;;;;20756666;28;20232;-71
2020/12/20 16:36:39;;;;;;;1.27;1.17;;;13.80;99.90;;;;;;20777726;28;20213;-73
2020/12/20 16:46:43;;;;;;;0.97;0.97;;;13.30;99.90;;;;;;20774410;28;20245;-77
2020/12/20 16:56:47;;;;;;;1.70;1.17;;;13.10;99.90;;;;;;20769398;28;20186;-69
2020/12/20 17:06:51;;;;;;;2.83;1.40;;;12.80;99.90;;;;;;20785257;28;20238;-74
2020/12/20 17:17:00;;;;;;;2.23;1.30;;;12.70;99.90;;;;;;20783470;28;20312;-75
2020/12/20 17:27:07;;;;;;;2.23;1.27;;;12.50;99.90;;;;;;20782635;28;20232;-74
2020/12/20 17:37:16;;;;;;;1.80;1.67;;;12.60;99.90;;;;;;20764888;28;20386;-74
2020/12/20 17:47:23;;;;;;;2.33;1.33;;;12.70;99.90;;;;;;20762810;28;20228;-74
2020/12/20 17:57:31;;;;;;;1.50;0.70;;;12.80;99.90;;;;;;20782453;28;20235;-74
2020/12/20 18:07:34;;;;;;;0.67;0.50;;;12.90;99.90;;;;;;20760816;28;20241;-73
2020/12/20 18:17:37;;;;;;;1.40;1.10;;;13.00;99.90;;;;;;20780032;28;20620;-74
2020/12/20 18:27:41;;;;;;;1.50;1.30;;;13.10;99.90;;;;;;20771739;28;20594;-74
2020/12/20 18:37:44;;;;;;;1.70;1.60;;;13.20;99.90;;;;;;20777741;28;20526;-76
2020/12/20 18:47:49;;;;;;;0.83;0.83;;;13.30;99.90;;;;;;20775152;28;20226;-75
2020/12/20 18:57:52;;;;;;;1.70;1.60;;;13.10;99.90;;;;;;20775091;28;20194;-74
2020/12/20 19:07:56;;;;;;;5.30;4.80;;;13.30;99.90;;;;;;20773485;28;20356;-77
2020/12/20 19:17:59;;;;;;;1.40;0.73;;;13.50;99.90;;;;;;20757007;28;20270;-78
2020/12/20 19:28:06;;;;;;;1.07;1.00;;;13.30;99.90;;;;;;20756256;28;20532;-74
2020/12/20 19:38:10;;;;;;;9.13;1.20;;;13.10;99.90;;;;;;20758769;28;20206;-73
2020/12/20 19:48:13;;;;;;;0.20;0.07;;;12.90;99.90;;;;;;20785132;28;20210;-76
2020/12/20 19:58:17;;;;;;;3.03;0.50;;;12.50;99.90;;;;;;20839867;28;20194;-74
2020/12/20 20:08:20;;;;;;;5.60;0.70;;;12.80;99.90;;;;;;20773558;28;20234;-75
2020/12/20 20:18:23;;;;;;;1.33;0.97;;;12.20;99.90;;;;;;20773077;28;20214;-74
2020/12/20 20:28:28;;;;;;;0.87;0.53;;;12.20;99.90;;;;;;20773804;28;20633;-74
2020/12/20 20:38:39;;;;;;;1.70;1.60;;;12.10;99.90;;;;;;20779217;28;20681;-73
2020/12/20 20:48:45;;;;;;;1.13;0.93;;;12.00;99.90;;;;;;20772055;28;20197;-75
2020/12/20 20:58:50;;;;;;;0.93;0.57;;;12.00;99.90;;;;;;20789280;28;20278;-75
2020/12/20 21:08:54;;;;;;;1.17;0.53;;;11.80;99.90;;;;;;20789842;28;20585;-74
2020/12/20 21:18:58;;;;;;;0.73;0.73;;;11.70;99.90;;;;;;20795870;28;20205;-73
2020/12/20 21:29:01;;;;;;;0.40;0.40;;;11.50;99.90;;;;;;20788852;28;20214;-74
2020/12/20 21:39:16;;;;;;;0.50;0.50;;;11.40;99.90;;;;;;20799355;28;20226;-76
2020/12/20 21:49:19;;;;;;;0.40;0.40;;;11.40;99.90;;;;;;20783394;28;20194;-75
2020/12/20 21:59:22;;;;;;;1.80;1.10;;;11.30;99.90;;;;;;20785192;28;20240;-74
2020/12/20 22:09:38;;;;;;;0.20;0.07;;;11.30;99.90;;;;;;20865874;28;20212;-74
2020/12/20 22:19:42;;;;;;;0.97;0.63;;;11.30;99.90;;;;;;20863712;28;20221;-71
2020/12/20 22:29:44;;;;;;;0.30;0.30;;;11.00;99.90;;;;;;20857737;28;20202;-73
2020/12/20 22:39:58;;;;;;;0.30;0.23;;;10.90;99.90;;;;;;20745004;28;20225;-73
2020/12/20 22:50:00;;;;;;;1.60;0.70;;;10.70;99.90;;;;;;20780623;28;20206;-73
2020/12/20 23:00:08;;;;;;;1.13;1.00;;;10.60;99.90;;;;;;20779349;28;20230;-73
2020/12/20 23:10:14;;;;;;;3.50;0.70;;;10.20;99.90;;;;;;20777179;28;20224;-75
2020/12/20 23:20:17;;;;;;;0.33;0.33;;;9.70;99.90;;;;;;20759226;28;20743;-73
2020/12/20 23:30:20;;;;;;;2.93;1.17;;;10.40;99.90;;;;;;20776698;28;20698;-73
2020/12/20 23:40:36;;;;;;;1.57;0.63;;;10.40;99.90;;;;;;20777491;28;20224;-73
2020/12/20 23:50:40;;;;;;;1.30;0.97;;;9.90;99.90;;;;;;20775489;28;20198;-72
